Time;durP1;ratioP1;P1;durP2;ratioP2;P2;SDS_P1;SDS_P2;PMS_P1;PMS_P2;Temp;Humidity;BMP_temperature;BMP_pressure;BME280_temperature;BME280_humidity;BME280_pressure;Samples;Min_cycle;Max_cycle;Signal;HPM_P1;HPM_P2
2023/06/21 00:01:09;;;;;;;;;;;24.80;55.10;;;;;;5107322;28;19942;-61
2023/06/21 00:03:36;;;;;;;;;;;24.90;55.20;;;;;;5095664;28;19925;-61
2023/06/21 00:06:05;;;;;;;;;;;24.80;55.20;;;;;;5098092;28;19920;-61
2023/06/21 00:08:32;;;;;;;;;;;24.90;55.30;;;;;;5103180;28;19924;-61
2023/06/21 00:10:59;;;;;;;;;;;24.80;55.10;;;;;;5091477;28;19942;-61
2023/06/21 00:13:26;;;;;;;;;;;24.90;55.20;;;;;;5091642;28;19919;-60
2023/06/21 00:15:54;;;;;;;;;;;24.80;55.10;;;;;;5098969;28;19920;-62
2023/06/21 00:18:21;;;;;;;;;;;24.80;55.10;;;;;;5108864;28;19957;-60
2023/06/21 00:20:48;;;;;;;;;;;24.80;55.10;;;;;;5110119;27;19920;-61
2023/06/21 00:23:18;;;;;;;;;;;24.80;55.10;;;;;;5111265;28;19924;-61
2023/06/21 00:25:44;;;;;;;;;;;24.80;55.10;;;;;;5096232;28;19922;-62
2023/06/21 00:28:11;;;;;;;;;;;24.80;55.10;;;;;;5097178;28;19920;-61
2023/06/21 00:30:38;;;;;;;;;;;24.80;55.20;;;;;;5091583;28;19965;-60
2023/06/21 00:33:05;;;;;;;;;;;24.80;55.10;;;;;;5105860;28;19985;-61
2023/06/21 00:35:31;;;;;;;;;;;24.80;55.20;;;;;;5098633;28;20010;-61
2023/06/21 00:37:58;;;;;;;;;;;24.80;55.20;;;;;;5108419;28;19919;-61
2023/06/21 00:40:26;;;;;;;;;;;24.80;55.20;;;;;;5108289;28;20277;-61
2023/06/21 00:42:53;;;;;;;;;;;24.80;55.20;;;;;;5110192;28;19990;-61
2023/06/21 00:45:20;;;;;;;;;;;24.80;55.20;;;;;;5106986;28;19969;-61
2023/06/21 00:47:47;;;;;;;;;;;24.80;55.20;;;;;;5096151;28;19928;-61
2023/06/21 00:50:14;;;;;;;;;;;24.80;55.30;;;;;;5107731;28;20420;-61
2023/06/21 00:52:42;;;;;;;;;;;24.80;55.20;;;;;;5092014;28;21130;-60
2023/06/21 00:55:09;;;;;;;;;;;24.80;55.90;;;;;;5096525;28;20004;-61
2023/06/21 00:57:37;;;;;;;;;;;24.80;55.30;;;;;;5107751;28;19926;-61
2023/06/21 01:00:12;;;;;;;;;;;24.80;55.30;;;;;;5104917;28;19924;-61
2023/06/21 01:02:39;;;;;;;;;;;24.80;55.40;;;;;;5091245;28;20358;-61
2023/06/21 01:05:06;;;;;;;;;;;24.80;55.40;;;;;;5089993;28;19920;-60
2023/06/21 01:07:36;;;;;;;;;;;24.80;55.40;;;;;;5095343;28;20015;-61
2023/06/21 01:10:09;;;;;;;;;;;24.80;55.40;;;;;;5097564;28;19919;-60
2023/06/21 01:12:41;;;;;;;;;;;24.80;55.50;;;;;;5099641;28;19937;-61
2023/06/21 01:15:10;;;;;;;;;;;24.80;55.50;;;;;;5096247;28;19926;-61
2023/06/21 01:17:37;;;;;;;;;;;24.80;55.50;;;;;;5092320;28;19963;-61
2023/06/21 01:20:12;;;;;;;;;;;24.80;55.50;;;;;;5104938;28;19975;-61
2023/06/21 01:22:40;;;;;;;;;;;24.80;55.50;;;;;;5092274;28;19920;-61
2023/06/21 01:25:13;;;;;;;;;;;24.80;55.50;;;;;;5103241;28;20014;-62
2023/06/21 01:27:48;;;;;;;;;;;24.80;55.50;;;;;;5089069;28;19920;-61
2023/06/21 01:30:16;;;;;;;;;;;24.80;55.60;;;;;;5093584;28;19924;-61
2023/06/21 01:32:43;;;;;;;;;;;24.80;55.60;;;;;;5088925;28;19920;-60
2023/06/21 01:35:12;;;;;;;;;;;24.80;55.60;;;;;;5100962;28;19920;-60
2023/06/21 01:37:42;;;;;;;;;;;24.80;55.60;;;;;;5094054;28;19920;-60
2023/06/21 01:40:11;;;;;;;;;;;24.80;55.60;;;;;;5094508;28;19920;-61
2023/06/21 01:42:38;;;;;;;;;;;24.80;55.60;;;;;;5095769;28;20274;-61
2023/06/21 01:45:05;;;;;;;;;;;24.80;55.60;;;;;;5096544;28;20365;-60
2023/06/21 01:47:33;;;;;;;;;;;24.80;55.70;;;;;;5096930;28;19920;-61
2023/06/21 01:50:00;;;;;;;;;;;24.80;55.70;;;;;;5095815;28;19965;-60
2023/06/21 01:52:26;;;;;;;;;;;24.80;55.70;;;;;;5097651;28;19920;-61
2023/06/21 01:54:53;;;;;;;;;;;24.80;55.70;;;;;;5094436;28;20270;-61
2023/06/21 01:57:20;;;;;;;;;;;24.80;55.70;;;;;;5096223;28;19924;-61
2023/06/21 01:59:47;;;;;;;;;;;24.80;55.70;;;;;;5096588;28;20302;-61
2023/06/21 02:02:14;;;;;;;;;;;24.80;55.80;;;;;;5097257;28;19953;-61
2023/06/21 02:04:42;;;;;;;;;;;24.80;55.80;;;;;;5096262;28;19959;-61
2023/06/21 02:07:13;;;;;;;;;;;24.80;55.80;;;;;;5094310;28;19969;-60
2023/06/21 02:09:40;;;;;;;;;;;24.80;55.80;;;;;;5113500;28;19946;-61
2023/06/21 02:12:07;;;;;;;;;;;24.80;55.90;;;;;;5111230;28;19927;-60
2023/06/21 02:14:34;;;;;;;;;;;24.80;55.90;;;;;;5096010;28;19951;-60
2023/06/21 02:17:01;;;;;;;;;;;24.80;55.90;;;;;;5109881;28;19951;-61
2023/06/21 02:19:31;;;;;;;;;;;24.80;55.90;;;;;;5117663;28;19947;-60
2023/06/21 02:21:59;;;;;;;;;;;24.80;56.00;;;;;;5116125;28;20358;-61
2023/06/21 02:24:25;;;;;;;;;;;24.80;56.00;;;;;;5116330;28;19919;-61
2023/06/21 02:26:52;;;;;;;;;;;24.80;56.00;;;;;;5116213;28;19968;-61
2023/06/21 02:29:19;;;;;;;;;;;24.80;56.00;;;;;;5117662;28;19920;-61
2023/06/21 02:31:46;;;;;;;;;;;24.80;56.00;;;;;;5117406;28;20381;-61
2023/06/21 02:34:13;;;;;;;;;;;24.80;56.00;;;;;;5116372;28;19946;-61
2023/06/21 02:36:40;;;;;;;;;;;24.80;56.00;;;;;;5114079;28;19920;-60
2023/06/21 02:39:08;;;;;;;;;;;24.80;56.00;;;;;;5115252;28;19989;-60
2023/06/21 02:41:35;;;;;;;;;;;24.80;56.00;;;;;;5115811;28;19969;-61
2023/06/21 02:44:01;;;;;;;;;;;24.80;56.00;;;;;;5101732;28;19922;-60
2023/06/21 02:46:28;;;;;;;;;;;24.80;56.10;;;;;;5096351;28;19966;-60
2023/06/21 02:48:55;;;;;;;;;;;24.80;56.10;;;;;;5095531;28;19927;-61
2023/06/21 02:51:24;;;;;;;;;;;24.80;56.10;;;;;;5095217;28;19920;-60
2023/06/21 02:53:51;;;;;;;;;;;24.80;56.10;;;;;;5096683;28;19955;-61
2023/06/21 02:56:19;;;;;;;;;;;24.80;56.10;;;;;;5096403;28;19920;-61
2023/06/21 02:58:46;;;;;;;;;;;24.80;56.10;;;;;;5095344;28;20243;-61
2023/06/21 03:01:13;;;;;;;;;;;24.80;56.10;;;;;;5095072;28;19924;-60
2023/06/21 03:03:41;;;;;;;;;;;24.70;56.10;;;;;;5094943;28;20468;-61
2023/06/21 03:06:07;;;;;;;;;;;24.80;56.10;;;;;;5093784;28;20010;-61
2023/06/21 03:08:36;;;;;;;;;;;24.70;56.10;;;;;;5095041;28;19924;-61
2023/06/21 03:11:04;;;;;;;;;;;24.70;56.10;;;;;;5104672;28;19919;-61
2023/06/21 03:13:32;;;;;;;;;;;24.70;56.20;;;;;;5115242;28;19920;-61
2023/06/21 03:15:59;;;;;;;;;;;24.70;56.10;;;;;;5115176;28;20350;-61
2023/06/21 03:18:26;;;;;;;;;;;24.70;56.10;;;;;;5116342;28;20402;-61
2023/06/21 03:20:52;;;;;;;;;;;24.80;56.20;;;;;;5116353;28;19924;-62
2023/06/21 03:23:19;;;;;;;;;;;24.80;56.20;;;;;;5095201;28;19920;-61
2023/06/21 03:25:46;;;;;;;;;;;24.70;56.20;;;;;;5094464;28;19966;-61
2023/06/21 03:28:12;;;;;;;;;;;24.70;56.20;;;;;;5094918;28;19970;-61
2023/06/21 03:30:41;;;;;;;;;;;24.70;56.30;;;;;;5095079;28;19924;-61
2023/06/21 03:33:07;;;;;;;;;;;24.70;56.30;;;;;;5092365;28;20005;-60
2023/06/21 03:35:34;;;;;;;;;;;24.80;56.30;;;;;;5094187;28;20370;-60
2023/06/21 03:38:01;;;;;;;;;;;24.70;56.30;;;;;;5107721;28;20300;-60
2023/06/21 03:40:27;;;;;;;;;;;24.70;56.30;;;;;;5114712;28;20023;-60
2023/06/21 03:42:54;;;;;;;;;;;24.70;56.40;;;;;;5112829;28;19977;-61
2023/06/21 03:45:21;;;;;;;;;;;24.70;56.30;;;;;;5101990;28;19973;-61
2023/06/21 03:47:49;;;;;;;;;;;24.70;56.30;;;;;;5092572;28;20251;-61
2023/06/21 03:50:16;;;;;;;;;;;24.70;56.30;;;;;;5093458;28;20006;-60
2023/06/21 03:52:43;;;;;;;;;;;24.70;56.30;;;;;;5096428;28;19920;-61
2023/06/21 03:55:10;;;;;;;;;;;24.80;56.40;;;;;;5109808;28;20316;-60
2023/06/21 03:57:38;;;;;;;;;;;24.80;56.40;;;;;;5093889;28;19920;-61
2023/06/21 04:00:06;;;;;;;;;;;24.70;56.30;;;;;;5094586;28;19928;-61
2023/06/21 04:02:33;;;;;;;;;;;24.70;56.90;;;;;;5095018;28;19931;-61
2023/06/21 04:05:01;;;;;;;;;;;24.80;56.40;;;;;;5109610;28;19920;-61
2023/06/21 04:07:28;;;;;;;;;;;24.70;56.40;;;;;;5106603;28;20423;-61
2023/06/21 04:09:54;;;;;;;;;;;24.70;56.40;;;;;;5093632;28;19931;-61
2023/06/21 04:12:21;;;;;;;;;;;24.80;56.40;;;;;;5097390;28;20323;-59
2023/06/21 04:14:48;;;;;;;;;;;24.70;56.40;;;;;;5112528;28;19963;-60
2023/06/21 04:17:15;;;;;;;;;;;24.70;56.40;;;;;;5103217;28;20305;-61
2023/06/21 04:19:41;;;;;;;;;;;24.70;56.40;;;;;;5103189;28;19969;-61
2023/06/21 04:22:09;;;;;;;;;;;24.80;56.50;;;;;;5112746;28;19919;-59
2023/06/21 04:24:37;;;;;;;;;;;24.70;56.40;;;;;;5093258;28;19928;-61
2023/06/21 04:27:05;;;;;;;;;;;24.70;56.40;;;;;;5109581;28;19920;-61
2023/06/21 04:29:34;;;;;;;;;;;24.70;56.40;;;;;;5115132;28;19920;-61
2023/06/21 04:32:00;;;;;;;;;;;24.80;56.50;;;;;;5114349;28;19970;-61
2023/06/21 04:34:28;;;;;;;;;;;24.80;56.50;;;;;;5115094;28;20365;-61
2023/06/21 04:36:54;;;;;;;;;;;24.80;56.60;;;;;;5114579;28;19928;-60
2023/06/21 04:39:22;;;;;;;;;;;24.80;56.70;;;;;;5113677;28;19927;-61
2023/06/21 04:41:52;;;;;;;;;;;24.70;56.70;;;;;;5113666;28;19923;-61
2023/06/21 04:44:18;;;;;;;;;;;24.70;56.70;;;;;;5113594;28;19920;-61
2023/06/21 04:46:45;;;;;;;;;;;24.80;56.70;;;;;;5113581;28;19931;-61
2023/06/21 04:49:12;;;;;;;;;;;24.70;56.70;;;;;;5113216;28;20393;-60
2023/06/21 04:51:39;;;;;;;;;;;24.70;56.80;;;;;;5114909;28;19920;-61
2023/06/21 04:54:06;;;;;;;;;;;24.70;56.80;;;;;;5114394;28;20036;-61
2023/06/21 04:56:35;;;;;;;;;;;24.80;56.90;;;;;;5113556;28;19962;-61
2023/06/21 04:59:03;;;;;;;;;;;24.70;56.90;;;;;;5114405;28;19920;-60
2023/06/21 05:01:30;;;;;;;;;;;24.70;56.90;;;;;;5114555;28;20018;-61
2023/06/21 05:03:57;;;;;;;;;;;24.70;57.00;;;;;;5114564;28;19923;-61
2023/06/21 05:06:25;;;;;;;;;;;24.70;57.00;;;;;;5113161;28;19963;-61
2023/06/21 05:08:51;;;;;;;;;;;24.70;57.10;;;;;;5112851;28;20268;-61
2023/06/21 05:11:18;;;;;;;;;;;24.70;57.20;;;;;;5113070;28;19927;-61
2023/06/21 05:13:47;;;;;;;;;;;24.70;57.20;;;;;;5114422;28;20034;-61
2023/06/21 05:16:13;;;;;;;;;;;24.70;57.30;;;;;;5095450;28;19920;-61
2023/06/21 05:18:40;;;;;;;;;;;24.70;57.30;;;;;;5094020;28;19920;-61
2023/06/21 05:21:07;;;;;;;;;;;24.70;57.30;;;;;;5075822;28;19964;-60
2023/06/21 05:23:33;;;;;;;;;;;24.70;57.40;;;;;;5076336;28;19919;-61
2023/06/21 05:26:00;;;;;;;;;;;24.70;57.50;;;;;;5076661;28;19965;-61
2023/06/21 05:28:27;;;;;;;;;;;24.70;57.40;;;;;;5074005;28;20254;-61
2023/06/21 05:30:55;;;;;;;;;;;24.80;57.50;;;;;;5093886;28;19927;-61
2023/06/21 05:33:22;;;;;;;;;;;24.80;58.00;;;;;;5075882;28;20251;-61
2023/06/21 05:35:49;;;;;;;;;;;24.80;57.50;;;;;;5075772;28;19920;-61
2023/06/21 05:38:15;;;;;;;;;;;24.80;57.50;;;;;;5075739;28;19924;-61
2023/06/21 05:40:42;;;;;;;;;;;24.70;57.60;;;;;;5075730;28;19920;-60
2023/06/21 05:43:09;;;;;;;;;;;24.70;57.60;;;;;;5093855;28;19924;-60
2023/06/21 05:45:37;;;;;;;;;;;24.80;57.70;;;;;;5075722;28;19924;-60
2023/06/21 05:48:05;;;;;;;;;;;24.80;57.70;;;;;;5075612;28;20377;-60
2023/06/21 05:50:32;;;;;;;;;;;24.80;57.70;;;;;;5075529;28;19981;-61
2023/06/21 05:52:59;;;;;;;;;;;24.70;57.70;;;;;;5093704;28;19928;-61
2023/06/21 05:55:25;;;;;;;;;;;24.80;57.80;;;;;;5091795;28;19924;-61
2023/06/21 05:57:52;;;;;;;;;;;24.80;57.90;;;;;;5092574;28;19981;-60
2023/06/21 06:00:19;;;;;;;;;;;24.70;57.70;;;;;;5054184;28;19920;-61
2023/06/21 06:02:46;;;;;;;;;;;24.80;57.80;;;;;;5073102;28;19924;-60
2023/06/21 06:05:14;;;;;;;;;;;24.80;57.90;;;;;;5055277;28;19928;-61
2023/06/21 06:07:41;;;;;;;;;;;24.70;57.80;;;;;;5056008;28;19970;-61
2023/06/21 06:10:09;;;;;;;;;;;24.80;57.90;;;;;;5055375;28;19930;-60
2023/06/21 06:12:35;;;;;;;;;;;24.80;57.90;;;;;;5073463;28;19935;-61
2023/06/21 06:15:02;;;;;;;;;;;24.80;57.90;;;;;;5071326;28;19924;-61
2023/06/21 06:17:30;;;;;;;;;;;24.80;58.00;;;;;;5092629;28;19927;-60
2023/06/21 06:19:57;;;;;;;;;;;24.70;57.90;;;;;;5094573;28;20014;-60
2023/06/21 06:22:25;;;;;;;;;;;24.80;58.00;;;;;;5096999;28;19974;-61
2023/06/21 06:24:52;;;;;;;;;;;24.80;58.00;;;;;;5095599;28;19926;-61
2023/06/21 06:27:18;;;;;;;;;;;24.80;58.60;;;;;;5097118;28;19927;-61
2023/06/21 06:29:45;;;;;;;;;;;24.80;58.00;;;;;;5096552;28;19924;-60
2023/06/21 06:32:12;;;;;;;;;;;24.80;58.00;;;;;;5097171;28;19965;-60
2023/06/21 06:34:38;;;;;;;;;;;24.70;57.90;;;;;;5095763;28;19924;-60
2023/06/21 06:37:05;;;;;;;;;;;24.80;58.00;;;;;;5095539;28;19920;-60
2023/06/21 06:39:34;;;;;;;;;;;24.80;58.00;;;;;;5095543;28;19967;-60
2023/06/21 06:42:00;;;;;;;;;;;24.70;57.90;;;;;;5096751;28;19920;-63
2023/06/21 06:44:27;;;;;;;;;;;24.80;57.90;;;;;;5097133;28;20338;-62
2023/06/21 06:46:54;;;;;;;;;;;24.80;57.90;;;;;;5095939;28;19920;-62
2023/06/21 06:49:20;;;;;;;;;;;24.80;57.90;;;;;;5096093;28;19920;-61
2023/06/21 06:51:47;;;;;;;;;;;24.80;57.80;;;;;;5097668;28;19924;-61
2023/06/21 06:54:14;;;;;;;;;;;24.80;57.80;;;;;;5102725;28;20018;-62
2023/06/21 06:56:43;;;;;;;;;;;24.80;57.80;;;;;;5116033;28;19920;-61
2023/06/21 06:59:10;;;;;;;;;;;24.80;57.80;;;;;;5111403;28;19924;-66
2023/06/21 07:01:37;;;;;;;;;;;24.80;57.80;;;;;;5110838;28;19924;-64
2023/06/21 07:04:04;;;;;;;;;;;24.80;57.90;;;;;;5094203;28;19920;-67
2023/06/21 07:06:31;;;;;;;;;;;24.80;57.80;;;;;;5077043;28;19920;-61
2023/06/21 07:08:58;;;;;;;;;;;24.80;57.80;;;;;;5109398;28;19931;-61
2023/06/21 07:11:24;;;;;;;;;;;24.80;57.70;;;;;;5094477;28;19924;-62
2023/06/21 07:13:52;;;;;;;;;;;24.80;57.70;;;;;;5104340;28;19927;-62
2023/06/21 07:16:20;;;;;;;;;;;24.80;57.70;;;;;;5095002;28;19951;-62
2023/06/21 07:18:47;;;;;;;;;;;24.90;57.80;;;;;;5099608;28;19926;-61
2023/06/21 07:21:14;;;;;;;;;;;24.80;58.30;;;;;;5112965;28;19920;-61
2023/06/21 07:23:40;;;;;;;;;;;24.80;57.60;;;;;;5107451;28;19919;-59
2023/06/21 07:26:08;;;;;;;;;;;24.80;57.60;;;;;;5094251;28;19997;-60
2023/06/21 07:28:34;;;;;;;;;;;24.90;57.70;;;;;;5092852;28;20034;-61
2023/06/21 07:31:05;;;;;;;;;;;24.90;57.70;;;;;;5112640;28;19927;-61
2023/06/21 07:33:32;;;;;;;;;;;24.90;57.70;;;;;;5111765;28;19920;-62
2023/06/21 07:35:59;;;;;;;;;;;24.90;57.80;;;;;;5109836;28;19942;-60
2023/06/21 07:38:26;;;;;;;;;;;24.90;57.70;;;;;;5092606;28;19921;-61
2023/06/21 07:40:52;;;;;;;;;;;24.90;57.70;;;;;;5094633;28;19920;-61
2023/06/21 07:43:20;;;;;;;;;;;24.90;57.70;;;;;;5108407;28;19920;-61
2023/06/21 07:45:46;;;;;;;;;;;24.90;57.70;;;;;;5115539;28;19920;-61
2023/06/21 07:48:14;;;;;;;;;;;24.90;57.60;;;;;;5094953;28;20270;-62
2023/06/21 07:50:41;;;;;;;;;;;24.90;57.60;;;;;;5093671;28;20362;-62
2023/06/21 07:53:08;;;;;;;;;;;24.90;57.60;;;;;;5091945;28;19924;-62
2023/06/21 07:55:35;;;;;;;;;;;24.90;57.50;;;;;;5110087;28;19965;-62
2023/06/21 07:58:02;;;;;;;;;;;24.90;58.10;;;;;;5105939;28;19920;-61
2023/06/21 08:00:28;;;;;;;;;;;24.90;57.60;;;;;;5098606;28;19924;-60
2023/06/21 08:02:55;;;;;;;;;;;24.90;57.50;;;;;;5105766;28;19920;-61
2023/06/21 08:05:24;;;;;;;;;;;24.90;57.50;;;;;;5102054;28;20340;-62
2023/06/21 08:07:50;;;;;;;;;;;24.90;57.40;;;;;;5093420;28;19942;-60
2023/06/21 08:10:17;;;;;;;;;;;24.90;57.40;;;;;;5097607;28;19977;-60
2023/06/21 08:12:44;;;;;;;;;;;24.90;57.50;;;;;;5098692;28;20015;-61
2023/06/21 08:15:11;;;;;;;;;;;25.00;57.50;;;;;;5090107;28;20323;-60
2023/06/21 08:17:38;;;;;;;;;;;24.90;57.40;;;;;;5101341;28;19924;-60
2023/06/21 08:20:06;;;;;;;;;;;24.90;57.40;;;;;;5091706;28;20161;-61
2023/06/21 08:22:35;;;;;;;;;;;24.90;57.30;;;;;;5093434;28;19924;-62
2023/06/21 08:25:01;;;;;;;;;;;25.00;57.30;;;;;;5094202;28;19962;-62
2023/06/21 08:27:28;;;;;;;;;;;25.00;57.30;;;;;;5102410;28;20342;-61
2023/06/21 08:29:55;;;;;;;;;;;24.90;57.20;;;;;;5090426;28;19924;-62
2023/06/21 08:32:22;;;;;;;;;;;25.00;57.20;;;;;;5098989;28;19920;-61
2023/06/21 08:34:48;;;;;;;;;;;25.00;57.20;;;;;;5092257;28;19928;-60
2023/06/21 08:37:17;;;;;;;;;;;25.00;57.10;;;;;;5093273;28;19919;-61
2023/06/21 08:39:45;;;;;;;;;;;25.00;57.10;;;;;;5094747;28;19973;-61
2023/06/21 08:42:12;;;;;;;;;;;25.00;57.10;;;;;;5104501;28;19927;-61
2023/06/21 08:44:39;;;;;;;;;;;25.00;57.10;;;;;;5095936;28;19979;-61
2023/06/21 08:47:06;;;;;;;;;;;25.00;57.10;;;;;;5102310;28;19920;-61
2023/06/21 08:49:32;;;;;;;;;;;25.00;57.00;;;;;;5092929;28;19924;-61
2023/06/21 08:51:59;;;;;;;;;;;25.00;57.10;;;;;;5097471;28;19924;-61
2023/06/21 08:54:28;;;;;;;;;;;25.00;57.00;;;;;;5092540;28;19927;-60
2023/06/21 08:56:57;;;;;;;;;;;25.00;57.70;;;;;;5091733;28;19927;-59
2023/06/21 08:59:24;;;;;;;;;;;25.00;57.00;;;;;;5104389;28;19924;-61
2023/06/21 09:01:53;;;;;;;;;;;25.00;57.00;;;;;;5108255;28;19920;-61
2023/06/21 09:04:20;;;;;;;;;;;25.00;57.00;;;;;;5095563;28;19927;-61
2023/06/21 09:06:47;;;;;;;;;;;25.00;56.90;;;;;;5105037;28;19919;-59
2023/06/21 09:09:14;;;;;;;;;;;25.00;56.90;;;;;;5098636;28;19920;-61
2023/06/21 09:11:41;;;;;;;;;;;25.00;56.80;;;;;;5108941;28;19920;-62
2023/06/21 09:14:09;;;;;;;;;;;25.00;56.80;;;;;;5089592;28;19993;-62
2023/06/21 09:16:36;;;;;;;;;;;25.00;56.70;;;;;;5055453;28;19920;-62
2023/06/21 09:19:03;;;;;;;;;;;25.00;56.70;;;;;;5061412;28;20411;-62
2023/06/21 09:21:30;;;;;;;;;;;25.00;56.70;;;;;;5074598;28;19928;-62
2023/06/21 09:23:57;;;;;;;;;;;25.00;56.60;;;;;;5057911;28;19963;-62
2023/06/21 09:26:24;;;;;;;;;;;25.00;56.60;;;;;;5058462;28;20609;-62
2023/06/21 09:28:51;;;;;;;;;;;25.00;56.60;;;;;;5058478;28;19936;-61
2023/06/21 09:31:19;;;;;;;;;;;25.00;56.50;;;;;;5074480;28;19920;-62
2023/06/21 09:33:47;;;;;;;;;;;25.00;56.50;;;;;;5076472;28;19973;-61
2023/06/21 09:36:15;;;;;;;;;;;25.00;57.00;;;;;;5071499;28;19927;-61
2023/06/21 09:38:41;;;;;;;;;;;25.00;56.40;;;;;;5055454;28;20023;-62
2023/06/21 09:41:08;;;;;;;;;;;25.00;56.40;;;;;;5091983;28;19920;-62
2023/06/21 09:43:35;;;;;;;;;;;25.00;56.40;;;;;;5075783;28;19924;-62
2023/06/21 09:46:03;;;;;;;;;;;25.00;56.40;;;;;;5055415;28;19920;-62
2023/06/21 09:48:33;;;;;;;;;;;25.00;56.40;;;;;;5055768;28;19924;-62
2023/06/21 09:51:01;;;;;;;;;;;25.00;56.30;;;;;;5053948;28;19925;-62
2023/06/21 09:53:28;;;;;;;;;;;25.00;56.30;;;;;;5070805;28;19920;-62
2023/06/21 09:55:55;;;;;;;;;;;25.00;56.20;;;;;;5072476;28;19936;-62
2023/06/21 09:58:22;;;;;;;;;;;25.00;56.20;;;;;;5073691;28;19927;-62
2023/06/21 10:00:49;;;;;;;;;;;25.00;56.20;;;;;;5057344;28;19927;-62
2023/06/21 10:03:16;;;;;;;;;;;25.00;56.10;;;;;;5069606;28;19969;-62
2023/06/21 10:05:56;;;;;;;;;;;25.00;56.10;;;;;;5059732;28;19924;-61
2023/06/21 10:08:24;;;;;;;;;;;25.00;56.10;;;;;;5077217;28;19920;-61
2023/06/21 10:10:51;;;;;;;;;;;25.00;56.10;;;;;;5076963;28;19959;-61
2023/06/21 10:13:18;;;;;;;;;;;25.00;56.10;;;;;;5059814;28;19920;-61
2023/06/21 10:15:45;;;;;;;;;;;25.00;56.00;;;;;;5071843;28;19968;-61
2023/06/21 10:18:12;;;;;;;;;;;25.00;56.00;;;;;;5097159;28;19927;-61
2023/06/21 10:20:39;;;;;;;;;;;25.00;55.90;;;;;;5097580;28;19920;-61
2023/06/21 10:23:07;;;;;;;;;;;25.00;55.90;;;;;;5079618;28;19920;-62
2023/06/21 10:25:34;;;;;;;;;;;25.00;55.80;;;;;;5097174;28;19927;-61
2023/06/21 10:28:01;;;;;;;;;;;25.00;55.80;;;;;;5079009;28;19973;-62
2023/06/21 10:30:28;;;;;;;;;;;25.00;55.80;;;;;;5079495;28;19920;-61
2023/06/21 10:32:55;;;;;;;;;;;25.00;55.70;;;;;;5078748;28;20270;-61
2023/06/21 10:35:22;;;;;;;;;;;25.00;56.30;;;;;;5062732;28;19950;-61
2023/06/21 10:37:50;;;;;;;;;;;25.00;55.60;;;;;;5058940;28;19920;-61
2023/06/21 10:40:18;;;;;;;;;;;25.00;55.50;;;;;;5056650;28;19920;-61
2023/06/21 10:42:45;;;;;;;;;;;25.00;55.50;;;;;;5058637;28;19926;-61
2023/06/21 10:45:12;;;;;;;;;;;25.00;55.50;;;;;;5076883;28;19943;-61
2023/06/21 10:47:39;;;;;;;;;;;25.00;55.40;;;;;;5073637;28;19920;-61
2023/06/21 10:50:07;;;;;;;;;;;25.00;55.40;;;;;;5059083;28;19921;-61
2023/06/21 10:52:33;;;;;;;;;;;25.00;55.30;;;;;;5058580;28;19970;-62
2023/06/21 10:55:01;;;;;;;;;;;25.00;55.30;;;;;;5068107;28;19954;-61
2023/06/21 10:57:29;;;;;;;;;;;25.00;55.20;;;;;;5078463;28;19920;-61
2023/06/21 10:59:56;;;;;;;;;;;25.00;55.20;;;;;;5079166;28;19973;-61
2023/06/21 11:02:23;;;;;;;;;;;25.00;55.10;;;;;;5078382;28;19920;-61
2023/06/21 11:05:09;;;;;;;;;;;25.00;55.10;;;;;;5065966;28;19925;-61
2023/06/21 11:07:35;;;;;;;;;;;25.00;55.00;;;;;;5057731;28;19942;-61
2023/06/21 11:10:03;;;;;;;;;;;25.00;54.90;;;;;;5056319;28;20282;-61
2023/06/21 11:12:31;;;;;;;;;;;25.00;54.90;;;;;;5076032;28;19924;-62
2023/06/21 11:14:58;;;;;;;;;;;25.00;54.90;;;;;;5074464;28;19925;-62
2023/06/21 11:17:25;;;;;;;;;;;25.00;54.90;;;;;;5082514;28;19920;-60
2023/06/21 11:19:52;;;;;;;;;;;25.00;54.90;;;;;;5058711;28;19920;-61
2023/06/21 11:22:19;;;;;;;;;;;25.00;54.90;;;;;;5091421;28;19926;-61
2023/06/21 11:24:50;;;;;;;;;;;25.00;54.90;;;;;;5078107;28;19920;-62
2023/06/21 11:27:16;;;;;;;;;;;25.00;54.80;;;;;;5078408;28;20404;-61
2023/06/21 11:29:50;;;;;;;;;;;25.00;54.80;;;;;;5076470;28;19920;-60
2023/06/21 11:32:18;;;;;;;;;;;25.00;54.80;;;;;;5057775;28;19990;-61
2023/06/21 11:34:56;;;;;;;;;;;25.00;54.80;;;;;;5057618;28;19927;-61
2023/06/21 11:37:33;;;;;;;;;;;25.00;54.80;;;;;;5057900;28;19926;-61
2023/06/21 11:40:00;;;;;;;;;;;25.00;54.70;;;;;;5055928;28;19920;-60
2023/06/21 11:42:27;;;;;;;;;;;25.00;54.70;;;;;;5073859;28;19946;-61
2023/06/21 11:44:56;;;;;;;;;;;25.10;54.70;;;;;;5075450;28;19959;-61
2023/06/21 11:47:23;;;;;;;;;;;25.00;54.60;;;;;;5075672;28;20043;-61
2023/06/21 11:50:01;;;;;;;;;;;25.10;54.60;;;;;;5058842;28;19920;-62
2023/06/21 11:52:33;;;;;;;;;;;25.00;54.50;;;;;;5058105;28;19990;-61
2023/06/21 11:55:12;;;;;;;;;;;25.10;54.50;;;;;;5057895;28;19928;-62
2023/06/21 11:57:42;;;;;;;;;;;25.10;54.30;;;;;;5075079;28;19963;-62
2023/06/21 12:00:11;;;;;;;;;;;25.10;54.30;;;;;;5057860;28;19924;-62
2023/06/21 12:02:38;;;;;;;;;;;25.10;54.30;;;;;;5057039;28;19960;-61
2023/06/21 12:05:05;;;;;;;;;;;25.10;54.20;;;;;;5074630;28;19960;-63
2023/06/21 12:07:32;;;;;;;;;;;25.10;54.20;;;;;;5074180;28;19920;-62
2023/06/21 12:09:59;;;;;;;;;;;25.10;54.20;;;;;;5058393;28;19924;-61
2023/06/21 12:12:26;;;;;;;;;;;25.10;54.20;;;;;;5057270;28;19920;-61
2023/06/21 12:14:53;;;;;;;;;;;25.10;54.10;;;;;;5086528;28;19920;-62
2023/06/21 12:17:21;;;;;;;;;;;25.10;54.10;;;;;;5094508;28;19920;-61
2023/06/21 12:19:48;;;;;;;;;;;25.10;54.00;;;;;;5095252;28;19920;-62
2023/06/21 12:22:15;;;;;;;;;;;25.10;54.00;;;;;;5093967;28;19920;-61
2023/06/21 12:24:42;;;;;;;;;;;25.10;53.90;;;;;;5094122;28;19924;-59
2023/06/21 12:27:12;;;;;;;;;;;25.10;53.90;;;;;;5093947;28;19927;-60
2023/06/21 12:29:39;;;;;;;;;;;25.20;54.00;;;;;;5105272;28;19927;-59
2023/06/21 12:32:06;;;;;;;;;;;25.10;53.80;;;;;;5092407;28;19920;-60
2023/06/21 12:34:34;;;;;;;;;;;25.10;53.80;;;;;;5107611;28;19955;-61
2023/06/21 12:37:01;;;;;;;;;;;25.10;53.70;;;;;;5100330;28;19921;-60
2023/06/21 12:39:27;;;;;;;;;;;25.10;53.60;;;;;;5093844;28;19919;-61
2023/06/21 12:41:54;;;;;;;;;;;25.10;53.60;;;;;;5092391;28;19943;-60
2023/06/21 12:44:21;;;;;;;;;;;25.10;53.40;;;;;;5106252;28;19920;-60
2023/06/21 12:46:48;;;;;;;;;;;25.10;53.30;;;;;;5094661;28;20425;-60
2023/06/21 12:49:15;;;;;;;;;;;25.10;53.20;;;;;;5091565;28;19965;-61
2023/06/21 12:51:45;;;;;;;;;;;25.10;53.10;;;;;;5091545;28;20330;-60
2023/06/21 12:54:12;;;;;;;;;;;25.10;53.10;;;;;;5092963;28;19924;-60
2023/06/21 12:56:40;;;;;;;;;;;25.10;53.10;;;;;;5108736;28;19920;-59
2023/06/21 12:59:06;;;;;;;;;;;25.10;53.20;;;;;;5112197;28;19965;-59
2023/06/21 13:01:33;;;;;;;;;;;25.10;52.90;;;;;;5104854;28;19927;-60
2023/06/21 13:04:00;;;;;;;;;;;25.10;53.00;;;;;;5091250;28;19920;-59
2023/06/21 13:06:27;;;;;;;;;;;25.10;53.10;;;;;;5091742;28;19920;-60
2023/06/21 13:08:55;;;;;;;;;;;25.10;53.10;;;;;;5092902;28;19924;-60
2023/06/21 13:11:22;;;;;;;;;;;25.10;53.10;;;;;;5091405;28;19923;-60
2023/06/21 13:13:49;;;;;;;;;;;25.10;53.10;;;;;;5089948;28;19920;-58
2023/06/21 13:16:16;;;;;;;;;;;25.10;53.10;;;;;;5072970;28;19956;-59
2023/06/21 13:18:44;;;;;;;;;;;25.10;53.10;;;;;;5070891;28;19920;-60
2023/06/21 13:21:11;;;;;;;;;;;25.10;53.10;;;;;;5062490;28;19920;-60
2023/06/21 13:23:38;;;;;;;;;;;25.10;53.20;;;;;;5059998;28;19921;-60
2023/06/21 13:26:07;;;;;;;;;;;25.20;53.00;;;;;;5052652;28;19928;-59
2023/06/21 13:28:34;;;;;;;;;;;25.10;52.70;;;;;;5059309;28;19921;-60
2023/06/21 13:31:00;;;;;;;;;;;25.10;52.80;;;;;;5083257;28;20370;-60
2023/06/21 13:33:27;;;;;;;;;;;25.10;52.90;;;;;;5076138;28;19966;-60
2023/06/21 13:35:54;;;;;;;;;;;25.10;52.90;;;;;;5072948;28;19924;-60
2023/06/21 13:38:21;;;;;;;;;;;25.10;52.80;;;;;;5057922;28;20321;-59
2023/06/21 13:40:47;;;;;;;;;;;25.10;52.80;;;;;;5057477;28;19932;-58
2023/06/21 13:43:16;;;;;;;;;;;25.10;52.80;;;;;;5083310;28;20282;-60
2023/06/21 13:45:43;;;;;;;;;;;25.10;52.70;;;;;;5057033;28;19924;-60
2023/06/21 13:48:09;;;;;;;;;;;25.10;52.80;;;;;;5073258;28;19964;-59
2023/06/21 13:50:36;;;;;;;;;;;25.10;52.70;;;;;;5072298;28;19920;-58
2023/06/21 13:53:03;;;;;;;;;;;25.10;52.70;;;;;;5059558;28;19924;-59
2023/06/21 13:55:30;;;;;;;;;;;25.10;52.80;;;;;;5071007;28;19920;-58
2023/06/21 13:57:59;;;;;;;;;;;25.10;52.90;;;;;;5060266;28;19920;-59
2023/06/21 14:00:28;;;;;;;;;;;25.10;52.80;;;;;;5068281;28;19927;-60
2023/06/21 14:02:54;;;;;;;;;;;25.10;52.80;;;;;;5057044;28;20021;-60
2023/06/21 14:05:22;;;;;;;;;;;25.10;52.80;;;;;;5069342;28;19921;-60
2023/06/21 14:07:48;;;;;;;;;;;25.10;52.70;;;;;;5055360;28;19966;-60
2023/06/21 14:10:15;;;;;;;;;;;25.10;52.80;;;;;;5060681;28;19927;-59
2023/06/21 14:12:42;;;;;;;;;;;25.10;52.80;;;;;;5088975;28;19953;-59
2023/06/21 14:15:09;;;;;;;;;;;25.10;52.90;;;;;;5084235;28;19942;-60
2023/06/21 14:17:38;;;;;;;;;;;25.10;53.00;;;;;;5109678;28;19924;-59